createdAt,value
2022-08-27T00:01:46.308Z,2.13
2022-08-27T00:04:14.118Z,2.08
2022-08-27T00:06:42.052Z,2.80
2022-08-27T00:09:10.337Z,2.72
2022-08-27T00:11:38.396Z,2.45
2022-08-27T00:14:06.361Z,2.60
2022-08-27T00:16:35.489Z,2.22
2022-08-27T00:19:03.328Z,2.45
2022-08-27T00:21:32.993Z,2.65
2022-08-27T00:24:00.757Z,2.50
2022-08-27T00:26:28.940Z,2.05
2022-08-27T00:28:56.731Z,2.58
2022-08-27T00:31:27.354Z,2.20
2022-08-27T00:33:57.170Z,1.95
2022-08-27T00:36:25.580Z,2.10
2022-08-27T00:38:54.173Z,2.10
2022-08-27T00:41:22.797Z,2.10
2022-08-27T00:43:54.415Z,2.35
2022-08-27T00:46:28.055Z,2.55
2022-08-27T00:49:01.548Z,2.55
2022-08-27T00:51:30.767Z,2.65
2022-08-27T00:53:59.997Z,2.60
2022-08-27T00:56:30.446Z,2.38
2022-08-27T00:58:58.557Z,2.70
2022-08-27T01:01:29.794Z,2.60
2022-08-27T01:04:01.739Z,2.63
2022-08-27T01:06:36.539Z,2.58
2022-08-27T01:09:08.099Z,2.58
2022-08-27T01:11:38.032Z,2.33
2022-08-27T01:14:05.910Z,2.60
2022-08-27T01:16:38.296Z,2.58
2022-08-27T01:19:19.192Z,2.72
2022-08-27T01:21:54.828Z,2.30
2022-08-27T01:24:31.818Z,2.30
2022-08-27T01:27:01.066Z,2.33
2022-08-27T01:29:29.422Z,2.17
2022-08-27T01:32:01.183Z,2.58
2022-08-27T01:34:28.927Z,2.63
2022-08-27T01:36:57.454Z,2.33
2022-08-27T01:39:25.514Z,2.20
2022-08-27T01:41:54.933Z,2.30
2022-08-27T01:44:22.642Z,2.40
2022-08-27T01:46:50.483Z,2.17
2022-08-27T01:49:18.204Z,2.30
2022-08-27T01:51:45.935Z,2.42
2022-08-27T01:54:13.726Z,2.30
2022-08-27T01:56:41.450Z,2.30
2022-08-27T01:59:10.531Z,2.60
2022-08-27T02:01:38.338Z,2.42
2022-08-27T02:04:06.035Z,2.42
2022-08-27T02:06:33.950Z,2.40
2022-08-27T02:09:01.646Z,2.35
2022-08-27T02:11:29.327Z,2.42
2022-08-27T02:13:57.032Z,2.25
2022-08-27T02:16:26.277Z,2.30
2022-08-27T02:18:54.613Z,2.20
2022-08-27T02:21:23.811Z,2.10
2022-08-27T02:23:51.578Z,2.70
2022-08-27T02:26:19.449Z,2.30
2022-08-27T02:28:47.215Z,2.35
2022-08-27T02:31:15.471Z,2.50
2022-08-27T02:33:44.809Z,2.13
2022-08-27T02:36:13.675Z,2.83
2022-08-27T02:38:41.639Z,2.28
2022-08-27T02:41:09.393Z,2.38
2022-08-27T02:43:37.608Z,2.63
2022-08-27T02:46:05.717Z,2.60
2022-08-27T02:48:33.760Z,2.60
2022-08-27T02:51:02.875Z,2.40
2022-08-27T02:53:30.559Z,2.63
2022-08-27T02:55:58.269Z,2.47
2022-08-27T02:58:26.179Z,2.83
2022-08-27T03:00:54.028Z,2.40
2022-08-27T03:03:21.787Z,2.60
2022-08-27T03:05:49.617Z,2.67
2022-08-27T03:08:18.714Z,2.75
2022-08-27T03:10:46.777Z,2.55
2022-08-27T03:13:14.615Z,2.60
2022-08-27T03:15:42.382Z,2.28
2022-08-27T03:18:19.061Z,2.67
2022-08-27T03:20:50.238Z,2.53
2022-08-27T03:23:22.268Z,2.60
2022-08-27T03:25:52.689Z,2.70
2022-08-27T03:28:23.359Z,2.83
2022-08-27T03:30:53.338Z,2.85
2022-08-27T03:33:22.675Z,2.67
2022-08-27T03:35:52.048Z,2.80
2022-08-27T03:38:21.453Z,2.80
2022-08-27T03:40:49.787Z,3.13
2022-08-27T03:43:19.305Z,3.22
2022-08-27T03:46:01.473Z,3.58
2022-08-27T03:48:30.925Z,3.50
2022-08-27T03:50:59.239Z,3.13
2022-08-27T03:53:28.322Z,3.47
2022-08-27T03:55:56.067Z,3.50
2022-08-27T03:58:23.864Z,3.83
2022-08-27T04:00:51.580Z,3.55
2022-08-27T04:03:19.324Z,3.90
2022-08-27T04:05:47.001Z,3.70
2022-08-27T04:08:14.701Z,8.30
2022-08-27T04:10:43.795Z,3.97
2022-08-27T04:13:11.909Z,3.92
2022-08-27T04:15:44.457Z,3.67
2022-08-27T04:18:13.701Z,3.50
2022-08-27T04:20:41.434Z,4.05
2022-08-27T04:23:09.397Z,3.47
2022-08-27T04:25:40.055Z,3.67
2022-08-27T04:28:10.029Z,3.60
2022-08-27T04:30:41.030Z,3.40
2022-08-27T04:33:08.946Z,3.65
2022-08-27T04:35:36.918Z,3.35
2022-08-27T04:38:05.058Z,3.08
2022-08-27T04:40:46.691Z,3.13
2022-08-27T04:43:17.633Z,3.50
2022-08-27T04:45:46.378Z,3.28
2022-08-27T04:48:15.871Z,3.33
2022-08-27T04:50:45.224Z,3.00
2022-08-27T04:53:14.662Z,2.90
2022-08-27T04:55:44.535Z,3.15
2022-08-27T04:58:12.489Z,3.08
2022-08-27T05:00:46.184Z,3.20
2022-08-27T05:03:15.377Z,2.85
2022-08-27T05:05:43.257Z,2.80
2022-08-27T05:08:13.135Z,3.30
2022-08-27T05:10:42.211Z,3.10
2022-08-27T05:13:10.416Z,2.80
2022-08-27T05:15:38.815Z,2.58
2022-08-27T05:18:09.753Z,2.80
2022-08-27T05:20:44.352Z,2.60
2022-08-27T05:23:12.486Z,2.67
2022-08-27T05:25:41.595Z,2.47
2022-08-27T05:28:09.688Z,2.67
2022-08-27T05:30:38.120Z,2.95
2022-08-27T05:33:07.484Z,2.65
2022-08-27T05:35:41.431Z,2.55
2022-08-27T05:38:09.815Z,2.47
2022-08-27T05:40:38.420Z,2.45
2022-08-27T05:43:07.018Z,2.65
2022-08-27T05:45:40.584Z,2.50
2022-08-27T05:48:12.112Z,2.40
2022-08-27T05:50:40.791Z,2.47
2022-08-27T05:53:09.073Z,2.40
2022-08-27T05:55:39.197Z,2.55
2022-08-27T05:58:07.918Z,2.22
2022-08-27T06:01:08.242Z,2.50
2022-08-27T06:03:41.087Z,2.40
2022-08-27T06:06:11.752Z,2.40
2022-08-27T06:08:40.024Z,3.10
2022-08-27T06:11:08.916Z,2.33
2022-08-27T06:13:37.315Z,2.28
2022-08-27T06:16:09.129Z,2.60
2022-08-27T06:18:38.862Z,2.30
2022-08-27T06:21:09.138Z,2.20
2022-08-27T06:23:37.975Z,2.38
2022-08-27T06:26:08.135Z,2.13
2022-08-27T06:28:36.844Z,2.38
2022-08-27T06:31:05.784Z,2.40
2022-08-27T06:33:34.363Z,2.70
2022-08-27T06:36:03.078Z,2.13
2022-08-27T06:38:32.918Z,2.33
2022-08-27T06:41:01.545Z,2.08
2022-08-27T06:43:29.576Z,2.30
2022-08-27T06:45:57.738Z,2.67
2022-08-27T06:48:25.775Z,2.40
2022-08-27T06:50:53.782Z,2.03
2022-08-27T06:53:24.327Z,2.30
2022-08-27T06:55:54.202Z,2.10
2022-08-27T06:58:22.377Z,2.60
2022-08-27T07:00:51.411Z,2.65
2022-08-27T07:03:19.430Z,2.28
2022-08-27T07:05:47.514Z,2.17
2022-08-27T07:08:15.625Z,2.20
2022-08-27T07:10:43.706Z,2.50
2022-08-27T07:13:13.187Z,2.40
2022-08-27T07:15:42.556Z,2.60
2022-08-27T07:18:11.138Z,2.20
2022-08-27T07:20:42.424Z,2.25
2022-08-27T07:23:11.235Z,2.30
2022-08-27T07:25:42.026Z,2.20
2022-08-27T07:28:10.481Z,2.38
2022-08-27T07:30:40.188Z,2.78
2022-08-27T07:33:08.460Z,2.30
2022-08-27T07:35:36.550Z,2.50
2022-08-27T07:38:04.598Z,2.50
2022-08-27T07:40:32.748Z,2.55
2022-08-27T07:43:21.220Z,2.35
2022-08-27T07:45:56.022Z,2.38
2022-08-27T07:48:35.070Z,2.25
2022-08-27T07:51:06.000Z,2.40
2022-08-27T07:53:34.525Z,2.50
2022-08-27T07:56:06.221Z,2.67
2022-08-27T07:58:34.249Z,2.42
2022-08-27T08:01:04.215Z,2.75
2022-08-27T08:03:32.658Z,2.35
2022-08-27T08:06:04.706Z,2.47
2022-08-27T08:08:33.338Z,2.45
2022-08-27T08:11:03.778Z,2.10
2022-08-27T08:13:32.638Z,2.30
2022-08-27T08:16:00.616Z,2.38
2022-08-27T08:18:30.000Z,2.05
2022-08-27T08:21:02.184Z,2.33
2022-08-27T08:23:30.206Z,2.42
2022-08-27T08:25:58.619Z,2.30
2022-08-27T08:28:27.775Z,2.22
2022-08-27T08:30:56.357Z,2.58
2022-08-27T08:33:24.739Z,2.58
2022-08-27T08:35:54.582Z,2.40
2022-08-27T08:38:22.750Z,2.55
2022-08-27T08:40:54.627Z,2.60
2022-08-27T08:43:31.420Z,2.40
2022-08-27T08:46:09.956Z,2.50
2022-08-27T08:48:41.385Z,2.83
2022-08-27T08:51:20.276Z,2.33
2022-08-27T08:53:54.391Z,2.28
2022-08-27T08:56:29.737Z,2.13
2022-08-27T08:59:04.550Z,2.60
2022-08-27T09:01:32.640Z,2.55
2022-08-27T09:04:04.210Z,2.25
2022-08-27T09:06:41.599Z,2.80
2022-08-27T09:09:19.524Z,2.40
2022-08-27T09:11:53.698Z,2.60
2022-08-27T09:14:28.900Z,2.55
2022-08-27T09:17:00.894Z,2.60
2022-08-27T09:19:29.710Z,2.33
2022-08-27T09:22:04.630Z,2.25
2022-08-27T09:24:44.556Z,2.33
2022-08-27T09:27:14.831Z,2.90
2022-08-27T09:29:50.287Z,2.75
2022-08-27T09:32:22.633Z,2.40
2022-08-27T09:37:23.177Z,2.20
2022-08-27T09:40:13.583Z,2.70
2022-08-27T09:42:53.601Z,2.60
2022-08-27T09:45:24.846Z,2.60
2022-08-27T09:47:54.842Z,2.50
2022-08-27T09:50:25.005Z,2.78
2022-08-27T09:52:56.774Z,2.83
2022-08-27T09:55:30.412Z,2.80
2022-08-27T09:57:58.593Z,2.70
2022-08-27T10:00:38.376Z,2.80
2022-08-27T10:03:08.086Z,2.78
2022-08-27T10:05:39.321Z,2.67
2022-08-27T10:08:21.264Z,3.38
2022-08-27T10:10:56.350Z,2.67
2022-08-27T10:13:29.610Z,2.78
2022-08-27T10:16:16.129Z,2.70
2022-08-27T10:18:53.775Z,3.20
2022-08-27T10:21:26.080Z,2.67
2022-08-27T10:24:10.496Z,2.58
2022-08-27T10:26:45.977Z,2.55
2022-08-27T10:29:22.308Z,2.40
2022-08-27T10:32:00.621Z,2.40
2022-08-27T10:34:37.410Z,2.55
2022-08-27T10:37:16.530Z,2.42
2022-08-27T10:40:04.255Z,2.40
2022-08-27T10:42:38.444Z,2.65
2022-08-27T10:45:26.676Z,2.30
2022-08-27T10:48:10.904Z,2.47
2022-08-27T10:50:46.593Z,2.20
2022-08-27T10:53:23.772Z,2.42
2022-08-27T10:55:58.239Z,2.20
2022-08-27T10:58:49.986Z,2.50
2022-08-27T11:01:26.757Z,2.47
2022-08-27T11:03:59.308Z,2.40
2022-08-27T11:06:34.168Z,2.47
2022-08-27T11:09:07.680Z,2.30
2022-08-27T11:12:12.819Z,2.10
2022-08-27T11:14:32.660Z,2.50
2022-08-27T11:17:07.605Z,2.35
2022-08-27T11:19:45.458Z,2.50
2022-08-27T11:22:26.509Z,2.30
2022-08-27T11:24:58.598Z,2.17
2022-08-27T11:27:32.430Z,2.40
2022-08-27T11:30:06.661Z,2.20
2022-08-27T11:32:45.765Z,2.13
2022-08-27T11:35:20.186Z,1.95
2022-08-27T11:38:14.153Z,2.25
2022-08-27T11:40:56.376Z,2.20
2022-08-27T11:45:58.472Z,2.33
2022-08-27T11:48:29.349Z,2.20
2022-08-27T11:50:59.913Z,2.40
2022-08-27T11:53:31.426Z,2.25
2022-08-27T11:56:10.743Z,2.20
2022-08-27T11:58:53.145Z,2.40
2022-08-27T12:01:27.253Z,2.15
2022-08-27T12:04:02.558Z,2.47
2022-08-27T12:06:43.614Z,2.00
2022-08-27T12:09:17.252Z,2.33
2022-08-27T12:11:56.693Z,1.83
2022-08-27T12:14:40.352Z,2.05
2022-08-27T12:17:17.845Z,2.13
2022-08-27T12:20:11.033Z,2.17
2022-08-27T12:23:06.468Z,2.10
2022-08-27T12:25:34.367Z,2.05
2022-08-27T12:28:05.239Z,1.98
2022-08-27T12:30:36.821Z,1.90
2022-08-27T12:33:14.751Z,3.83
2022-08-27T12:35:47.567Z,2.03
2022-08-27T12:38:22.216Z,1.98
2022-08-27T12:41:05.468Z,2.00
2022-08-27T12:43:33.821Z,2.00
2022-08-27T12:46:07.378Z,2.42
2022-08-27T12:48:39.405Z,2.00
2022-08-27T12:51:23.218Z,3.15
2022-08-27T12:53:57.434Z,2.50
2022-08-27T12:56:51.042Z,2.10
2022-08-27T12:59:52.937Z,1.90
2022-08-27T13:02:36.210Z,2.00
2022-08-27T13:05:10.317Z,2.10
2022-08-27T13:07:42.408Z,2.20
2022-08-27T13:10:13.130Z,2.00
2022-08-27T13:12:41.822Z,2.40
2022-08-27T13:15:11.543Z,1.80
2022-08-27T13:17:47.329Z,1.85
2022-08-27T13:20:18.614Z,2.05
2022-08-27T13:22:47.092Z,1.97
2022-08-27T13:25:23.807Z,2.03
2022-08-27T13:27:56.968Z,2.53
2022-08-27T13:30:35.192Z,2.40
2022-08-27T13:33:07.886Z,2.17
2022-08-27T13:35:37.609Z,2.10
2022-08-27T13:38:05.656Z,1.77
2022-08-27T13:40:36.534Z,1.80
2022-08-27T13:43:08.875Z,2.00
2022-08-27T13:45:38.278Z,2.05
2022-08-27T13:48:08.595Z,2.03
2022-08-27T13:50:37.807Z,1.75
2022-08-27T13:53:25.328Z,1.90
2022-08-27T13:55:54.785Z,2.00
2022-08-27T13:58:26.971Z,1.85
2022-08-27T14:00:56.085Z,1.92
2022-08-27T14:03:30.434Z,1.90
2022-08-27T14:05:58.479Z,2.10
2022-08-27T14:08:31.279Z,1.90
2022-08-27T14:11:04.987Z,1.77
2022-08-27T14:13:40.858Z,1.92
2022-08-27T14:16:23.916Z,2.15
2022-08-27T14:18:59.284Z,1.90
2022-08-27T14:21:27.772Z,2.08
2022-08-27T14:23:56.073Z,2.00
2022-08-27T14:26:24.328Z,1.83
2022-08-27T14:28:52.050Z,1.90
2022-08-27T14:31:19.897Z,2.10
2022-08-27T14:33:47.666Z,1.90
2022-08-27T14:36:17.374Z,1.80
2022-08-27T14:38:48.081Z,1.95
2022-08-27T14:41:16.646Z,1.88
2022-08-27T14:43:49.790Z,2.15
2022-08-27T14:46:24.185Z,2.00
2022-08-27T14:48:54.168Z,1.80
2022-08-27T14:51:27.353Z,2.17
2022-08-27T14:53:56.255Z,2.00
2022-08-27T14:56:25.045Z,2.00
2022-08-27T14:58:54.305Z,1.92
2022-08-27T15:01:24.727Z,2.35
2022-08-27T15:03:54.406Z,1.75
2022-08-27T15:06:25.148Z,1.92
2022-08-27T15:11:25.237Z,2.20
2022-08-27T15:13:54.285Z,1.70
2022-08-27T15:16:29.379Z,1.60
2022-08-27T15:19:00.945Z,2.00
2022-08-27T15:21:32.110Z,1.77
2022-08-27T15:24:02.923Z,2.15
2022-08-27T15:26:31.426Z,2.00
2022-08-27T15:29:02.814Z,1.80
2022-08-27T15:31:33.597Z,1.90
2022-08-27T15:34:01.409Z,2.10
2022-08-27T15:36:30.567Z,2.10
2022-08-27T15:38:58.331Z,1.95
2022-08-27T15:41:29.133Z,1.95
2022-08-27T15:43:57.826Z,2.00
2022-08-27T15:46:26.302Z,1.95
2022-08-27T15:48:54.891Z,2.25
2022-08-27T15:51:28.841Z,1.73
2022-08-27T15:53:58.447Z,1.60
2022-08-27T15:56:26.479Z,2.17
2022-08-27T15:58:55.087Z,1.90
2022-08-27T16:01:26.650Z,1.92
2022-08-27T16:03:55.233Z,2.25
2022-08-27T16:06:23.819Z,1.90
2022-08-27T16:08:51.967Z,1.80
2022-08-27T16:11:22.766Z,1.73
2022-08-27T16:13:50.836Z,2.42
2022-08-27T16:16:22.201Z,1.80
2022-08-27T16:18:50.016Z,2.15
2022-08-27T16:21:17.941Z,2.67
2022-08-27T16:23:45.790Z,1.85
2022-08-27T16:26:13.656Z,2.00
2022-08-27T16:28:42.809Z,1.90
2022-08-27T16:31:13.272Z,1.73
2022-08-27T16:33:41.834Z,2.00
2022-08-27T16:36:10.369Z,1.77
2022-08-27T16:38:38.271Z,1.92
2022-08-27T16:41:06.628Z,3.95
2022-08-27T16:43:34.831Z,1.85
2022-08-27T16:46:04.208Z,2.13
2022-08-27T16:48:49.525Z,1.83
2022-08-27T16:51:30.027Z,1.80
2022-08-27T16:54:00.724Z,1.83
2022-08-27T16:56:28.705Z,2.00
2022-08-27T16:58:56.885Z,2.10
2022-08-27T17:01:26.451Z,2.13
2022-08-27T17:04:09.612Z,2.05
2022-08-27T17:06:39.749Z,1.90
2022-08-27T17:09:08.704Z,2.00
2022-08-27T17:11:40.431Z,2.08
2022-08-27T17:14:10.550Z,1.80
2022-08-27T17:16:41.272Z,1.67
2022-08-27T17:19:10.264Z,2.03
2022-08-27T17:21:45.457Z,2.00
2022-08-27T17:24:13.790Z,2.00
2022-08-27T17:26:41.575Z,1.90
2022-08-27T17:29:09.333Z,2.08
2022-08-27T17:31:41.642Z,2.08
2022-08-27T17:34:15.165Z,1.80
2022-08-27T17:36:44.344Z,1.90
2022-08-27T17:39:12.661Z,2.15
2022-08-27T17:41:43.119Z,1.75
2022-08-27T17:44:17.673Z,2.10
2022-08-27T17:46:47.509Z,2.35
2022-08-27T17:49:16.838Z,2.00
2022-08-27T17:51:45.322Z,2.00
2022-08-27T17:54:26.620Z,1.90
2022-08-27T17:56:54.462Z,2.30
2022-08-27T17:59:22.572Z,1.83
2022-08-27T18:01:52.542Z,2.28
2022-08-27T18:04:20.911Z,2.10
2022-08-27T18:06:49.230Z,2.20
2022-08-27T18:09:17.873Z,2.00
2022-08-27T18:11:46.512Z,2.00
2022-08-27T18:14:18.101Z,2.17
2022-08-27T18:16:46.544Z,2.28
2022-08-27T18:19:16.126Z,2.08
2022-08-27T18:21:46.895Z,2.10
2022-08-27T18:24:16.131Z,2.20
2022-08-27T18:26:45.273Z,2.30
2022-08-27T18:29:15.399Z,2.47
2022-08-27T18:31:44.176Z,2.40
2022-08-27T18:34:12.207Z,2.20
2022-08-27T18:36:41.646Z,2.40
2022-08-27T18:39:09.554Z,2.20
2022-08-27T18:41:37.623Z,2.20
2022-08-27T18:44:05.454Z,2.65
2022-08-27T18:46:45.222Z,2.08
2022-08-27T18:49:13.168Z,2.17
2022-08-27T18:51:46.182Z,2.10
2022-08-27T18:54:17.773Z,2.03
2022-08-27T18:56:45.993Z,2.05
2022-08-27T18:59:14.040Z,2.03
2022-08-27T19:01:42.151Z,2.08
2022-08-27T19:04:13.136Z,2.40
2022-08-27T19:06:42.602Z,2.53
2022-08-27T19:09:10.634Z,2.20
2022-08-27T19:11:39.117Z,2.25
2022-08-27T19:14:07.070Z,2.15
2022-08-27T19:16:41.498Z,2.00
2022-08-27T19:19:11.056Z,2.10
2022-08-27T19:21:39.167Z,2.10
2022-08-27T19:24:09.850Z,2.15
2022-08-27T19:26:38.059Z,2.20
2022-08-27T19:29:07.956Z,2.20
2022-08-27T19:31:37.010Z,2.33
2022-08-27T19:34:06.014Z,2.20
2022-08-27T19:36:36.218Z,2.28
2022-08-27T19:39:05.667Z,2.38
2022-08-27T19:41:35.172Z,2.05
2022-08-27T19:44:03.618Z,1.90
2022-08-27T19:46:32.840Z,1.98
2022-08-27T19:49:00.719Z,2.13
2022-08-27T19:51:28.656Z,2.50
2022-08-27T19:53:56.603Z,2.20
2022-08-27T19:56:24.955Z,2.08
2022-08-27T19:58:58.535Z,2.50
2022-08-27T20:01:29.563Z,2.35
2022-08-27T20:03:58.886Z,2.50
2022-08-27T20:06:28.783Z,2.10
2022-08-27T20:08:56.822Z,1.73
2022-08-27T20:11:24.790Z,2.03
2022-08-27T20:13:54.225Z,2.45
2022-08-27T20:16:23.727Z,2.08
2022-08-27T20:18:51.873Z,1.98
2022-08-27T20:21:19.829Z,1.95
2022-08-27T20:23:48.029Z,1.75
2022-08-27T20:26:15.996Z,2.10
2022-08-27T20:28:44.061Z,2.10
2022-08-27T20:31:13.691Z,2.10
2022-08-27T20:33:41.745Z,2.13
2022-08-27T20:36:10.326Z,1.92
2022-08-27T20:38:38.366Z,2.10
2022-08-27T20:41:07.265Z,1.98
2022-08-27T20:43:35.670Z,2.08
2022-08-27T20:46:04.237Z,1.90
2022-08-27T20:48:37.460Z,1.80
2022-08-27T20:51:05.520Z,1.90
2022-08-27T20:53:33.569Z,1.75
2022-08-27T20:56:01.528Z,1.85
2022-08-27T20:58:47.012Z,2.03
2022-08-27T21:01:15.065Z,1.83
2022-08-27T21:03:44.674Z,1.88
2022-08-27T21:06:12.838Z,2.08
2022-08-27T21:08:41.285Z,1.88
2022-08-27T21:11:12.385Z,1.98
2022-08-27T21:13:55.262Z,1.90
2022-08-27T21:16:26.176Z,1.80
2022-08-27T21:18:55.950Z,1.80
2022-08-27T21:21:24.155Z,1.70
2022-08-27T21:23:52.237Z,2.42
2022-08-27T21:26:23.034Z,1.70
2022-08-27T21:28:55.456Z,2.10
2022-08-27T21:31:24.251Z,1.70
2022-08-27T21:33:52.377Z,1.67
2022-08-27T21:36:21.746Z,2.08
2022-08-27T21:38:49.786Z,1.80
2022-08-27T21:41:17.852Z,2.20
2022-08-27T21:43:45.865Z,1.73
2022-08-27T21:46:13.813Z,1.95
2022-08-27T21:48:41.823Z,1.63
2022-08-27T21:51:10.704Z,1.80
2022-08-27T21:53:42.975Z,1.52
2022-08-27T21:56:13.151Z,1.73
2022-08-27T21:58:41.553Z,1.98
2022-08-27T22:01:09.630Z,1.90
2022-08-27T22:03:37.785Z,1.80
2022-08-27T22:06:08.150Z,1.95
2022-08-27T22:08:36.399Z,1.60
2022-08-27T22:11:06.040Z,1.98
2022-08-27T22:13:34.729Z,2.10
2022-08-27T22:16:03.293Z,1.80
2022-08-27T22:18:31.641Z,1.67
2022-08-27T22:21:00.159Z,1.83
2022-08-27T22:23:28.809Z,2.15
2022-08-27T22:26:01.299Z,2.15
2022-08-27T22:28:30.782Z,2.00
2022-08-27T22:30:58.671Z,2.03
2022-08-27T22:33:26.941Z,2.53
2022-08-27T22:35:55.231Z,2.13
2022-08-27T22:38:23.070Z,2.00
2022-08-27T22:40:52.803Z,2.35
2022-08-27T22:43:20.752Z,2.50
2022-08-27T22:45:50.083Z,2.50
2022-08-27T22:48:18.030Z,2.78
2022-08-27T22:50:46.000Z,2.60
2022-08-27T22:53:14.161Z,2.67
2022-08-27T22:55:42.714Z,2.53
2022-08-27T22:58:13.667Z,2.60
2022-08-27T23:00:42.259Z,2.60
2022-08-27T23:03:12.754Z,2.53
2022-08-27T23:05:42.012Z,2.53
2022-08-27T23:08:12.343Z,2.50
2022-08-27T23:10:41.178Z,3.00
2022-08-27T23:13:09.857Z,2.75
2022-08-27T23:15:38.710Z,2.70
2022-08-27T23:18:07.058Z,2.90
2022-08-27T23:20:36.840Z,2.70
2022-08-27T23:23:07.975Z,2.78
2022-08-27T23:25:53.146Z,2.90
2022-08-27T23:28:21.780Z,3.55
2022-08-27T23:30:49.998Z,3.30
2022-08-27T23:33:21.392Z,3.20
2022-08-27T23:35:51.846Z,3.15
2022-08-27T23:38:21.740Z,3.30
2022-08-27T23:40:50.623Z,3.97
2022-08-27T23:43:20.719Z,3.40
2022-08-27T23:45:49.293Z,3.30
2022-08-27T23:48:17.065Z,3.35
2022-08-27T23:50:45.472Z,3.25
2022-08-27T23:53:15.251Z,3.63
2022-08-27T23:55:43.043Z,3.55
2022-08-27T23:58:11.759Z,3.75
